sensor_id;sensor_type;location;lat;lon;timestamp;P1;durP1;ratioP1;P2;durP2;ratioP2
64313;SDS011;50650;48.180;11.524;2022-07-01T00:00:20;6.05;;;2.40;;
64313;SDS011;50650;48.180;11.524;2022-07-01T00:02:47;9.05;;;2.90;;
64313;SDS011;50650;48.180;11.524;2022-07-01T00:05:13;3.30;;;2.47;;
64313;SDS011;50650;48.180;11.524;2022-07-01T00:07:40;6.57;;;3.03;;
64313;SDS011;50650;48.180;11.524;2022-07-01T00:10:07;6.28;;;2.90;;
64313;SDS011;50650;48.180;11.524;2022-07-01T00:12:34;10.40;;;2.80;;
64313;SDS011;50650;48.180;11.524;2022-07-01T00:15:02;8.75;;;2.72;;
64313;SDS011;50650;48.180;11.524;2022-07-01T00:17:29;4.90;;;2.53;;
64313;SDS011;50650;48.180;11.524;2022-07-01T00:19:56;5.38;;;2.70;;
64313;SDS011;50650;48.180;11.524;2022-07-01T00:22:23;5.25;;;2.80;;
64313;SDS011;50650;48.180;11.524;2022-07-01T00:24:50;5.13;;;2.47;;
64313;SDS011;50650;48.180;11.524;2022-07-01T00:27:17;7.10;;;2.60;;
64313;SDS011;50650;48.180;11.524;2022-07-01T00:29:43;4.32;;;2.65;;
64313;SDS011;50650;48.180;11.524;2022-07-01T00:32:11;4.78;;;2.25;;
64313;SDS011;50650;48.180;11.524;2022-07-01T00:34:38;7.03;;;2.28;;
64313;SDS011;50650;48.180;11.524;2022-07-01T00:37:05;4.43;;;2.08;;
64313;SDS011;50650;48.180;11.524;2022-07-01T00:39:31;5.35;;;2.92;;
64313;SDS011;50650;48.180;11.524;2022-07-01T00:41:59;4.63;;;2.28;;
64313;SDS011;50650;48.180;11.524;2022-07-01T00:44:26;2.85;;;2.13;;
64313;SDS011;50650;48.180;11.524;2022-07-01T00:46:53;6.00;;;1.92;;
64313;SDS011;50650;48.180;11.524;2022-07-01T00:49:21;2.95;;;2.08;;
64313;SDS011;50650;48.180;11.524;2022-07-01T00:51:48;2.92;;;2.13;;
64313;SDS011;50650;48.180;11.524;2022-07-01T00:54:17;3.95;;;1.80;;
64313;SDS011;50650;48.180;11.524;2022-07-01T00:56:45;3.50;;;1.73;;
64313;SDS011;50650;48.180;11.524;2022-07-01T00:59:11;2.75;;;1.60;;
64313;SDS011;50650;48.180;11.524;2022-07-01T01:01:38;3.63;;;1.45;;
64313;SDS011;50650;48.180;11.524;2022-07-01T01:04:04;2.85;;;1.50;;
64313;SDS011;50650;48.180;11.524;2022-07-01T01:06:32;4.60;;;1.30;;
64313;SDS011;50650;48.180;11.524;2022-07-01T01:08:59;1.08;;;0.73;;
64313;SDS011;50650;48.180;11.524;2022-07-01T01:11:26;1.83;;;1.00;;
64313;SDS011;50650;48.180;11.524;2022-07-01T01:13:52;1.33;;;0.93;;
64313;SDS011;50650;48.180;11.524;2022-07-01T01:16:19;1.75;;;0.82;;
64313;SDS011;50650;48.180;11.524;2022-07-01T01:18:47;1.00;;;0.68;;
64313;SDS011;50650;48.180;11.524;2022-07-01T01:21:15;3.47;;;0.90;;
64313;SDS011;50650;48.180;11.524;2022-07-01T01:23:42;2.17;;;0.82;;
64313;SDS011;50650;48.180;11.524;2022-07-01T01:26:18;1.67;;;0.88;;
64313;SDS011;50650;48.180;11.524;2022-07-01T01:28:46;4.13;;;0.80;;
64313;SDS011;50650;48.180;11.524;2022-07-01T01:31:13;0.80;;;0.70;;
64313;SDS011;50650;48.180;11.524;2022-07-01T01:36:57;1.10;;;0.60;;
64313;SDS011;50650;48.180;11.524;2022-07-01T01:39:24;1.63;;;0.68;;
64313;SDS011;50650;48.180;11.524;2022-07-01T01:41:50;1.33;;;0.65;;
64313;SDS011;50650;48.180;11.524;2022-07-01T01:44:17;0.85;;;0.60;;
64313;SDS011;50650;48.180;11.524;2022-07-01T01:46:44;1.10;;;0.40;;
64313;SDS011;50650;48.180;11.524;2022-07-01T01:49:11;0.65;;;0.50;;
64313;SDS011;50650;48.180;11.524;2022-07-01T01:51:38;2.50;;;0.73;;
64313;SDS011;50650;48.180;11.524;2022-07-01T01:54:06;0.90;;;0.43;;
64313;SDS011;50650;48.180;11.524;2022-07-01T01:56:33;0.70;;;0.40;;
64313;SDS011;50650;48.180;11.524;2022-07-01T01:58:59;0.50;;;0.40;;
64313;SDS011;50650;48.180;11.524;2022-07-01T02:01:26;2.30;;;0.50;;
64313;SDS011;50650;48.180;11.524;2022-07-01T02:03:53;0.60;;;0.50;;
64313;SDS011;50650;48.180;11.524;2022-07-01T02:06:20;1.00;;;0.50;;
64313;SDS011;50650;48.180;11.524;2022-07-01T02:08:47;0.55;;;0.50;;
64313;SDS011;50650;48.180;11.524;2022-07-01T02:11:15;0.85;;;0.57;;
64313;SDS011;50650;48.180;11.524;2022-07-01T02:13:43;2.35;;;0.60;;
64313;SDS011;50650;48.180;11.524;2022-07-01T02:16:10;0.50;;;0.40;;
64313;SDS011;50650;48.180;11.524;2022-07-01T02:18:38;1.65;;;0.52;;
64313;SDS011;50650;48.180;11.524;2022-07-01T02:21:04;0.45;;;0.40;;
64313;SDS011;50650;48.180;11.524;2022-07-01T02:23:36;0.75;;;0.60;;
64313;SDS011;50650;48.180;11.524;2022-07-01T02:26:03;0.95;;;0.80;;
64313;SDS011;50650;48.180;11.524;2022-07-01T02:28:34;2.05;;;0.82;;
64313;SDS011;50650;48.180;11.524;2022-07-01T02:31:00;0.90;;;0.70;;
64313;SDS011;50650;48.180;11.524;2022-07-01T02:33:27;2.05;;;0.50;;
64313;SDS011;50650;48.180;11.524;2022-07-01T02:35:54;1.25;;;0.80;;
64313;SDS011;50650;48.180;11.524;2022-07-01T02:38:21;1.40;;;0.70;;
64313;SDS011;50650;48.180;11.524;2022-07-01T02:40:48;2.47;;;0.68;;
64313;SDS011;50650;48.180;11.524;2022-07-01T02:43:14;1.00;;;0.50;;
64313;SDS011;50650;48.180;11.524;2022-07-01T02:45:42;0.60;;;0.57;;
64313;SDS011;50650;48.180;11.524;2022-07-01T02:48:09;2.88;;;0.70;;
64313;SDS011;50650;48.180;11.524;2022-07-01T02:50:36;0.70;;;0.50;;
64313;SDS011;50650;48.180;11.524;2022-07-01T02:53:03;1.30;;;0.85;;
64313;SDS011;50650;48.180;11.524;2022-07-01T02:55:29;0.93;;;0.52;;
64313;SDS011;50650;48.180;11.524;2022-07-01T02:57:56;1.27;;;0.60;;
64313;SDS011;50650;48.180;11.524;2022-07-01T03:00:23;0.90;;;0.60;;
64313;SDS011;50650;48.180;11.524;2022-07-01T03:02:51;0.80;;;0.60;;
64313;SDS011;50650;48.180;11.524;2022-07-01T03:05:18;0.98;;;0.70;;
64313;SDS011;50650;48.180;11.524;2022-07-01T03:07:44;0.98;;;0.70;;
64313;SDS011;50650;48.180;11.524;2022-07-01T03:10:11;3.45;;;0.90;;
64313;SDS011;50650;48.180;11.524;2022-07-01T03:12:38;1.52;;;0.57;;
64313;SDS011;50650;48.180;11.524;2022-07-01T03:15:06;1.08;;;0.70;;
64313;SDS011;50650;48.180;11.524;2022-07-01T03:17:35;2.80;;;0.80;;
64313;SDS011;50650;48.180;11.524;2022-07-01T03:20:04;1.00;;;0.70;;
64313;SDS011;50650;48.180;11.524;2022-07-01T03:22:31;2.05;;;0.70;;
64313;SDS011;50650;48.180;11.524;2022-07-01T03:24:58;4.05;;;0.80;;
64313;SDS011;50650;48.180;11.524;2022-07-01T03:27:25;1.17;;;0.63;;
64313;SDS011;50650;48.180;11.524;2022-07-01T03:29:52;1.00;;;0.80;;
64313;SDS011;50650;48.180;11.524;2022-07-01T03:32:19;2.15;;;0.68;;
64313;SDS011;50650;48.180;11.524;2022-07-01T03:34:47;1.10;;;0.70;;
64313;SDS011;50650;48.180;11.524;2022-07-01T03:37:18;1.17;;;0.68;;
64313;SDS011;50650;48.180;11.524;2022-07-01T03:39:46;1.60;;;0.80;;
64313;SDS011;50650;48.180;11.524;2022-07-01T03:42:13;1.63;;;0.70;;
64313;SDS011;50650;48.180;11.524;2022-07-01T03:44:43;0.70;;;0.70;;
64313;SDS011;50650;48.180;11.524;2022-07-01T03:47:10;1.48;;;0.80;;
64313;SDS011;50650;48.180;11.524;2022-07-01T03:49:37;4.10;;;0.60;;
64313;SDS011;50650;48.180;11.524;2022-07-01T03:52:04;0.90;;;0.80;;
64313;SDS011;50650;48.180;11.524;2022-07-01T03:54:32;2.70;;;0.63;;
64313;SDS011;50650;48.180;11.524;2022-07-01T03:57:00;2.30;;;0.88;;
64313;SDS011;50650;48.180;11.524;2022-07-01T03:59:28;1.30;;;0.70;;
64313;SDS011;50650;48.180;11.524;2022-07-01T04:01:56;0.93;;;0.60;;
64313;SDS011;50650;48.180;11.524;2022-07-01T04:04:23;0.93;;;0.70;;
64313;SDS011;50650;48.180;11.524;2022-07-01T04:06:51;1.60;;;0.80;;
64313;SDS011;50650;48.180;11.524;2022-07-01T04:09:17;1.00;;;0.60;;
64313;SDS011;50650;48.180;11.524;2022-07-01T04:11:47;2.58;;;0.70;;
64313;SDS011;50650;48.180;11.524;2022-07-01T04:14:14;1.02;;;0.60;;
64313;SDS011;50650;48.180;11.524;2022-07-01T04:16:42;1.65;;;0.70;;
64313;SDS011;50650;48.180;11.524;2022-07-01T04:19:10;1.40;;;0.88;;
64313;SDS011;50650;48.180;11.524;2022-07-01T04:21:37;2.08;;;1.02;;
64313;SDS011;50650;48.180;11.524;2022-07-01T04:26:51;1.77;;;0.80;;
64313;SDS011;50650;48.180;11.524;2022-07-01T04:29:18;1.80;;;0.80;;
64313;SDS011;50650;48.180;11.524;2022-07-01T04:31:45;1.08;;;0.77;;
64313;SDS011;50650;48.180;11.524;2022-07-01T04:34:13;1.08;;;0.73;;
64313;SDS011;50650;48.180;11.524;2022-07-01T04:36:39;1.95;;;0.80;;
64313;SDS011;50650;48.180;11.524;2022-07-01T04:39:08;1.23;;;0.82;;
64313;SDS011;50650;48.180;11.524;2022-07-01T04:41:35;1.08;;;0.60;;
64313;SDS011;50650;48.180;11.524;2022-07-01T04:44:20;1.60;;;0.82;;
64313;SDS011;50650;48.180;11.524;2022-07-01T04:46:47;1.98;;;1.30;;
64313;SDS011;50650;48.180;11.524;2022-07-01T04:49:14;1.38;;;0.80;;
64313;SDS011;50650;48.180;11.524;2022-07-01T04:51:40;1.60;;;1.10;;
64313;SDS011;50650;48.180;11.524;2022-07-01T04:54:08;2.15;;;0.90;;
64313;SDS011;50650;48.180;11.524;2022-07-01T04:56:35;1.75;;;0.85;;
64313;SDS011;50650;48.180;11.524;2022-07-01T04:59:05;1.35;;;0.80;;
64313;SDS011;50650;48.180;11.524;2022-07-01T05:01:33;1.23;;;0.70;;
64313;SDS011;50650;48.180;11.524;2022-07-01T05:04:00;1.65;;;0.70;;
64313;SDS011;50650;48.180;11.524;2022-07-01T05:06:27;1.42;;;0.80;;
64313;SDS011;50650;48.180;11.524;2022-07-01T05:08:54;1.17;;;0.90;;
64313;SDS011;50650;48.180;11.524;2022-07-01T05:11:20;1.50;;;0.80;;
64313;SDS011;50650;48.180;11.524;2022-07-01T05:13:47;1.52;;;0.70;;
64313;SDS011;50650;48.180;11.524;2022-07-01T05:16:14;1.20;;;0.82;;
64313;SDS011;50650;48.180;11.524;2022-07-01T05:18:45;3.40;;;0.80;;
64313;SDS011;50650;48.180;11.524;2022-07-01T05:21:29;1.45;;;0.93;;
64313;SDS011;50650;48.180;11.524;2022-07-01T05:24:12;1.33;;;0.70;;
64313;SDS011;50650;48.180;11.524;2022-07-01T05:26:39;1.67;;;0.70;;
64313;SDS011;50650;48.180;11.524;2022-07-01T05:29:06;0.73;;;0.70;;
64313;SDS011;50650;48.180;11.524;2022-07-01T05:31:33;1.13;;;0.70;;
64313;SDS011;50650;48.180;11.524;2022-07-01T05:34:01;0.90;;;0.70;;
64313;SDS011;50650;48.180;11.524;2022-07-01T05:36:29;1.30;;;0.70;;
64313;SDS011;50650;48.180;11.524;2022-07-01T05:38:56;1.63;;;0.90;;
64313;SDS011;50650;48.180;11.524;2022-07-01T05:41:23;0.88;;;0.57;;
64313;SDS011;50650;48.180;11.524;2022-07-01T05:43:49;1.42;;;0.80;;
64313;SDS011;50650;48.180;11.524;2022-07-01T05:46:16;1.20;;;0.70;;
64313;SDS011;50650;48.180;11.524;2022-07-01T05:48:43;1.25;;;0.70;;
64313;SDS011;50650;48.180;11.524;2022-07-01T05:51:11;2.50;;;0.80;;
64313;SDS011;50650;48.180;11.524;2022-07-01T05:53:38;0.80;;;0.63;;
64313;SDS011;50650;48.180;11.524;2022-07-01T05:56:05;0.93;;;0.73;;
64313;SDS011;50650;48.180;11.524;2022-07-01T05:58:31;0.98;;;0.70;;
64313;SDS011;50650;48.180;11.524;2022-07-01T06:00:58;0.85;;;0.60;;
64313;SDS011;50650;48.180;11.524;2022-07-01T06:03:25;2.30;;;0.85;;
64313;SDS011;50650;48.180;11.524;2022-07-01T06:05:53;2.28;;;0.98;;
64313;SDS011;50650;48.180;11.524;2022-07-01T06:08:21;1.65;;;0.95;;
64313;SDS011;50650;48.180;11.524;2022-07-01T06:10:50;1.98;;;0.88;;
64313;SDS011;50650;48.180;11.524;2022-07-01T06:13:16;2.33;;;0.80;;
64313;SDS011;50650;48.180;11.524;2022-07-01T06:15:43;2.05;;;0.65;;
64313;SDS011;50650;48.180;11.524;2022-07-01T06:18:10;0.70;;;0.60;;
64313;SDS011;50650;48.180;11.524;2022-07-01T06:20:36;1.70;;;1.00;;
64313;SDS011;50650;48.180;11.524;2022-07-01T06:23:03;2.72;;;0.60;;
64313;SDS011;50650;48.180;11.524;2022-07-01T06:25:32;1.00;;;0.60;;
64313;SDS011;50650;48.180;11.524;2022-07-01T06:28:00;3.22;;;0.70;;
64313;SDS011;50650;48.180;11.524;2022-07-01T06:30:27;3.50;;;0.65;;
64313;SDS011;50650;48.180;11.524;2022-07-01T06:32:56;1.48;;;0.60;;
64313;SDS011;50650;48.180;11.524;2022-07-01T06:35:23;0.95;;;0.60;;
64313;SDS011;50650;48.180;11.524;2022-07-01T06:37:50;1.83;;;0.95;;
64313;SDS011;50650;48.180;11.524;2022-07-01T06:40:17;2.15;;;0.80;;
64313;SDS011;50650;48.180;11.524;2022-07-01T06:42:45;1.75;;;0.70;;
64313;SDS011;50650;48.180;11.524;2022-07-01T06:45:14;2.45;;;0.98;;
64313;SDS011;50650;48.180;11.524;2022-07-01T06:47:41;3.13;;;0.73;;
64313;SDS011;50650;48.180;11.524;2022-07-01T06:50:08;3.22;;;0.90;;
64313;SDS011;50650;48.180;11.524;2022-07-01T06:52:34;4.35;;;0.80;;
64313;SDS011;50650;48.180;11.524;2022-07-01T06:55:01;0.68;;;0.57;;
64313;SDS011;50650;48.180;11.524;2022-07-01T06:57:27;1.20;;;0.80;;
64313;SDS011;50650;48.180;11.524;2022-07-01T06:59:55;1.77;;;0.90;;
64313;SDS011;50650;48.180;11.524;2022-07-01T07:02:22;2.28;;;0.70;;
64313;SDS011;50650;48.180;11.524;2022-07-01T07:04:48;2.05;;;0.85;;
64313;SDS011;50650;48.180;11.524;2022-07-01T07:07:15;2.75;;;0.80;;
64313;SDS011;50650;48.180;11.524;2022-07-01T07:09:41;5.18;;;0.95;;
64313;SDS011;50650;48.180;11.524;2022-07-01T07:12:08;1.60;;;0.70;;
64313;SDS011;50650;48.180;11.524;2022-07-01T07:14:35;1.90;;;0.63;;
64313;SDS011;50650;48.180;11.524;2022-07-01T07:17:03;2.88;;;1.10;;
64313;SDS011;50650;48.180;11.524;2022-07-01T07:19:29;3.42;;;1.02;;
64313;SDS011;50650;48.180;11.524;2022-07-01T07:21:56;1.35;;;0.98;;
64313;SDS011;50650;48.180;11.524;2022-07-01T07:24:22;2.17;;;1.08;;
64313;SDS011;50650;48.180;11.524;2022-07-01T07:26:49;3.47;;;1.27;;
64313;SDS011;50650;48.180;11.524;2022-07-01T07:29:15;5.72;;;1.30;;
64313;SDS011;50650;48.180;11.524;2022-07-01T07:31:41;3.40;;;1.67;;
64313;SDS011;50650;48.180;11.524;2022-07-01T07:34:09;3.45;;;1.60;;
64313;SDS011;50650;48.180;11.524;2022-07-01T07:36:36;2.70;;;1.60;;
64313;SDS011;50650;48.180;11.524;2022-07-01T07:39:02;2.22;;;1.45;;
64313;SDS011;50650;48.180;11.524;2022-07-01T07:41:29;2.35;;;1.50;;
64313;SDS011;50650;48.180;11.524;2022-07-01T07:43:56;1.95;;;1.23;;
64313;SDS011;50650;48.180;11.524;2022-07-01T07:46:22;4.25;;;1.73;;
64313;SDS011;50650;48.180;11.524;2022-07-01T07:48:49;5.40;;;1.80;;
64313;SDS011;50650;48.180;11.524;2022-07-01T07:51:19;3.47;;;1.50;;
64313;SDS011;50650;48.180;11.524;2022-07-01T07:53:48;2.83;;;1.40;;
64313;SDS011;50650;48.180;11.524;2022-07-01T07:56:14;1.60;;;1.50;;
64313;SDS011;50650;48.180;11.524;2022-07-01T07:58:41;2.97;;;1.40;;
64313;SDS011;50650;48.180;11.524;2022-07-01T08:01:08;2.22;;;1.27;;
64313;SDS011;50650;48.180;11.524;2022-07-01T08:03:35;3.78;;;1.20;;
64313;SDS011;50650;48.180;11.524;2022-07-01T08:06:01;1.85;;;1.33;;
64313;SDS011;50650;48.180;11.524;2022-07-01T08:08:29;1.00;;;0.90;;
64313;SDS011;50650;48.180;11.524;2022-07-01T08:10:56;0.80;;;0.70;;
64313;SDS011;50650;48.180;11.524;2022-07-01T08:13:23;1.63;;;0.68;;
64313;SDS011;50650;48.180;11.524;2022-07-01T08:15:49;0.85;;;0.63;;
64313;SDS011;50650;48.180;11.524;2022-07-01T08:18:16;0.90;;;0.50;;
64313;SDS011;50650;48.180;11.524;2022-07-01T08:20:42;3.70;;;0.55;;
64313;SDS011;50650;48.180;11.524;2022-07-01T08:23:09;1.40;;;0.52;;
64313;SDS011;50650;48.180;11.524;2022-07-01T08:25:37;1.13;;;0.50;;
64313;SDS011;50650;48.180;11.524;2022-07-01T08:28:04;0.50;;;0.47;;
64313;SDS011;50650;48.180;11.524;2022-07-01T08:30:31;0.65;;;0.50;;
64313;SDS011;50650;48.180;11.524;2022-07-01T08:32:58;0.90;;;0.52;;
64313;SDS011;50650;48.180;11.524;2022-07-01T08:35:25;1.15;;;0.50;;
64313;SDS011;50650;48.180;11.524;2022-07-01T08:37:51;1.83;;;0.30;;
64313;SDS011;50650;48.180;11.524;2022-07-01T08:40:18;0.70;;;0.50;;
64313;SDS011;50650;48.180;11.524;2022-07-01T08:42:46;1.98;;;0.70;;
64313;SDS011;50650;48.180;11.524;2022-07-01T08:45:12;2.35;;;0.70;;
64313;SDS011;50650;48.180;11.524;2022-07-01T08:47:48;1.65;;;0.60;;
64313;SDS011;50650;48.180;11.524;2022-07-01T08:50:17;1.35;;;0.70;;
64313;SDS011;50650;48.180;11.524;2022-07-01T08:52:44;1.77;;;0.70;;
64313;SDS011;50650;48.180;11.524;2022-07-01T08:55:11;0.73;;;0.50;;
64313;SDS011;50650;48.180;11.524;2022-07-01T08:57:37;1.70;;;0.70;;
64313;SDS011;50650;48.180;11.524;2022-07-01T09:00:06;2.72;;;0.57;;
64313;SDS011;50650;48.180;11.524;2022-07-01T09:02:53;0.63;;;0.50;;
64313;SDS011;50650;48.180;11.524;2022-07-01T09:05:21;1.65;;;0.60;;
64313;SDS011;50650;48.180;11.524;2022-07-01T09:07:48;0.55;;;0.45;;
64313;SDS011;50650;48.180;11.524;2022-07-01T09:10:16;0.82;;;0.52;;
64313;SDS011;50650;48.180;11.524;2022-07-01T09:12:45;0.55;;;0.50;;
64313;SDS011;50650;48.180;11.524;2022-07-01T09:15:20;5.72;;;0.70;;
64313;SDS011;50650;48.180;11.524;2022-07-01T09:17:49;0.73;;;0.60;;
64313;SDS011;50650;48.180;11.524;2022-07-01T09:20:23;1.23;;;0.50;;
64313;SDS011;50650;48.180;11.524;2022-07-01T09:22:58;0.57;;;0.47;;
64313;SDS011;50650;48.180;11.524;2022-07-01T09:25:26;0.75;;;0.40;;
64313;SDS011;50650;48.180;11.524;2022-07-01T09:30:39;0.90;;;0.40;;
64313;SDS011;50650;48.180;11.524;2022-07-01T09:33:07;1.25;;;0.85;;
64313;SDS011;50650;48.180;11.524;2022-07-01T09:35:35;0.60;;;0.60;;
64313;SDS011;50650;48.180;11.524;2022-07-01T09:38:02;0.80;;;0.65;;
64313;SDS011;50650;48.180;11.524;2022-07-01T09:40:45;0.82;;;0.40;;
64313;SDS011;50650;48.180;11.524;2022-07-01T09:43:16;2.30;;;0.77;;
64313;SDS011;50650;48.180;11.524;2022-07-01T09:45:58;1.13;;;0.70;;
64313;SDS011;50650;48.180;11.524;2022-07-01T09:48:27;2.40;;;0.60;;
64313;SDS011;50650;48.180;11.524;2022-07-01T09:51:08;0.73;;;0.50;;
64313;SDS011;50650;48.180;11.524;2022-07-01T09:53:36;3.00;;;0.75;;
64313;SDS011;50650;48.180;11.524;2022-07-01T09:56:03;1.63;;;0.70;;
64313;SDS011;50650;48.180;11.524;2022-07-01T09:58:30;1.33;;;0.70;;
64313;SDS011;50650;48.180;11.524;2022-07-01T10:00:58;0.60;;;0.50;;
64313;SDS011;50650;48.180;11.524;2022-07-01T10:03:25;0.65;;;0.60;;
64313;SDS011;50650;48.180;11.524;2022-07-01T10:05:53;0.70;;;0.52;;
64313;SDS011;50650;48.180;11.524;2022-07-01T10:08:32;0.90;;;0.60;;
64313;SDS011;50650;48.180;11.524;2022-07-01T10:11:33;0.57;;;0.40;;
64313;SDS011;50650;48.180;11.524;2022-07-01T10:14:10;0.73;;;0.50;;
64313;SDS011;50650;48.180;11.524;2022-07-01T10:16:39;0.60;;;0.60;;
64313;SDS011;50650;48.180;11.524;2022-07-01T10:19:06;0.90;;;0.50;;
64313;SDS011;50650;48.180;11.524;2022-07-01T10:21:51;2.45;;;0.50;;
64313;SDS011;50650;48.180;11.524;2022-07-01T10:24:19;0.90;;;0.60;;
64313;SDS011;50650;48.180;11.524;2022-07-01T10:26:46;1.23;;;0.65;;
64313;SDS011;50650;48.180;11.524;2022-07-01T10:29:29;1.25;;;0.50;;
64313;SDS011;50650;48.180;11.524;2022-07-01T10:32:03;2.25;;;1.35;;
64313;SDS011;50650;48.180;11.524;2022-07-01T10:34:37;1.40;;;0.70;;
64313;SDS011;50650;48.180;11.524;2022-07-01T10:37:05;0.70;;;0.60;;
64313;SDS011;50650;48.180;11.524;2022-07-01T10:42:27;2.05;;;0.77;;
64313;SDS011;50650;48.180;11.524;2022-07-01T10:44:58;1.55;;;0.60;;
64313;SDS011;50650;48.180;11.524;2022-07-01T10:47:28;3.13;;;0.70;;
64313;SDS011;50650;48.180;11.524;2022-07-01T10:49:55;1.58;;;0.93;;
64313;SDS011;50650;48.180;11.524;2022-07-01T10:52:23;2.35;;;0.60;;
64313;SDS011;50650;48.180;11.524;2022-07-01T10:54:51;1.45;;;0.63;;
64313;SDS011;50650;48.180;11.524;2022-07-01T10:57:30;0.77;;;0.47;;
64313;SDS011;50650;48.180;11.524;2022-07-01T11:02:55;2.90;;;0.70;;
64313;SDS011;50650;48.180;11.524;2022-07-01T11:05:31;1.25;;;0.55;;
64313;SDS011;50650;48.180;11.524;2022-07-01T11:07:58;0.63;;;0.43;;
64313;SDS011;50650;48.180;11.524;2022-07-01T11:10:25;1.52;;;0.80;;
64313;SDS011;50650;48.180;11.524;2022-07-01T11:12:51;2.47;;;0.73;;
64313;SDS011;50650;48.180;11.524;2022-07-01T11:15:18;1.30;;;1.02;;
64313;SDS011;50650;48.180;11.524;2022-07-01T11:17:46;2.35;;;1.40;;
64313;SDS011;50650;48.180;11.524;2022-07-01T11:20:15;2.17;;;0.70;;
64313;SDS011;50650;48.180;11.524;2022-07-01T11:22:42;1.95;;;0.50;;
64313;SDS011;50650;48.180;11.524;2022-07-01T11:25:09;1.08;;;0.70;;
64313;SDS011;50650;48.180;11.524;2022-07-01T11:27:38;1.10;;;0.80;;
64313;SDS011;50650;48.180;11.524;2022-07-01T11:30:06;0.98;;;0.57;;
64313;SDS011;50650;48.180;11.524;2022-07-01T11:32:37;1.70;;;0.70;;
64313;SDS011;50650;48.180;11.524;2022-07-01T11:35:08;0.60;;;0.60;;
64313;SDS011;50650;48.180;11.524;2022-07-01T11:38:04;1.65;;;0.70;;
64313;SDS011;50650;48.180;11.524;2022-07-01T11:40:55;0.57;;;0.50;;
64313;SDS011;50650;48.180;11.524;2022-07-01T11:43:23;3.00;;;0.70;;
64313;SDS011;50650;48.180;11.524;2022-07-01T11:45:51;1.10;;;0.60;;
64313;SDS011;50650;48.180;11.524;2022-07-01T11:48:35;1.40;;;0.77;;
64313;SDS011;50650;48.180;11.524;2022-07-01T11:51:07;0.65;;;0.63;;
64313;SDS011;50650;48.180;11.524;2022-07-01T11:53:38;2.03;;;0.95;;
64313;SDS011;50650;48.180;11.524;2022-07-01T11:56:06;1.63;;;0.77;;
64313;SDS011;50650;48.180;11.524;2022-07-01T11:58:46;2.17;;;0.90;;
64313;SDS011;50650;48.180;11.524;2022-07-01T12:01:24;1.98;;;0.88;;
64313;SDS011;50650;48.180;11.524;2022-07-01T12:03:52;0.80;;;0.68;;
64313;SDS011;50650;48.180;11.524;2022-07-01T12:06:20;2.65;;;1.05;;
64313;SDS011;50650;48.180;11.524;2022-07-01T12:08:49;1.90;;;0.82;;
64313;SDS011;50650;48.180;11.524;2022-07-01T12:11:17;2.72;;;1.13;;
64313;SDS011;50650;48.180;11.524;2022-07-01T12:13:44;2.22;;;0.93;;
64313;SDS011;50650;48.180;11.524;2022-07-01T12:16:11;1.25;;;0.70;;
64313;SDS011;50650;48.180;11.524;2022-07-01T12:18:39;1.10;;;0.70;;
64313;SDS011;50650;48.180;11.524;2022-07-01T12:21:05;3.22;;;0.80;;
64313;SDS011;50650;48.180;11.524;2022-07-01T12:23:33;1.67;;;1.30;;
64313;SDS011;50650;48.180;11.524;2022-07-01T12:26:03;1.27;;;0.70;;
64313;SDS011;50650;48.180;11.524;2022-07-01T12:28:30;1.88;;;1.00;;
64313;SDS011;50650;48.180;11.524;2022-07-01T12:31:03;1.15;;;0.70;;
64313;SDS011;50650;48.180;11.524;2022-07-01T12:33:33;0.90;;;0.70;;
64313;SDS011;50650;48.180;11.524;2022-07-01T12:36:01;1.20;;;1.10;;
64313;SDS011;50650;48.180;11.524;2022-07-01T12:38:28;1.35;;;0.90;;
64313;SDS011;50650;48.180;11.524;2022-07-01T12:40:55;1.05;;;0.80;;
64313;SDS011;50650;48.180;11.524;2022-07-01T12:43:24;3.65;;;0.80;;
64313;SDS011;50650;48.180;11.524;2022-07-01T12:45:54;2.63;;;1.10;;
64313;SDS011;50650;48.180;11.524;2022-07-01T12:48:22;1.20;;;0.90;;
64313;SDS011;50650;48.180;11.524;2022-07-01T12:50:51;2.53;;;1.20;;
64313;SDS011;50650;48.180;11.524;2022-07-01T12:53:19;1.20;;;1.10;;
64313;SDS011;50650;48.180;11.524;2022-07-01T12:55:48;1.20;;;1.00;;
64313;SDS011;50650;48.180;11.524;2022-07-01T12:58:16;1.30;;;1.10;;
64313;SDS011;50650;48.180;11.524;2022-07-01T13:00:45;1.55;;;1.20;;
64313;SDS011;50650;48.180;11.524;2022-07-01T13:03:12;2.95;;;1.13;;
64313;SDS011;50650;48.180;11.524;2022-07-01T13:05:40;2.13;;;1.23;;
64313;SDS011;50650;48.180;11.524;2022-07-01T13:08:07;3.47;;;1.20;;
64313;SDS011;50650;48.180;11.524;2022-07-01T13:10:35;1.58;;;1.15;;
64313;SDS011;50650;48.180;11.524;2022-07-01T13:13:02;1.77;;;1.20;;
64313;SDS011;50650;48.180;11.524;2022-07-01T13:15:29;2.33;;;1.45;;
64313;SDS011;50650;48.180;11.524;2022-07-01T13:17:57;2.22;;;1.50;;
64313;SDS011;50650;48.180;11.524;2022-07-01T13:20:26;1.50;;;1.30;;
64313;SDS011;50650;48.180;11.524;2022-07-01T13:22:54;1.40;;;1.15;;
64313;SDS011;50650;48.180;11.524;2022-07-01T13:25:21;1.80;;;1.27;;
64313;SDS011;50650;48.180;11.524;2022-07-01T13:27:48;1.20;;;1.10;;
64313;SDS011;50650;48.180;11.524;2022-07-01T13:30:16;1.38;;;1.10;;
64313;SDS011;50650;48.180;11.524;2022-07-01T13:32:43;1.85;;;1.65;;
64313;SDS011;50650;48.180;11.524;2022-07-01T13:35:12;1.20;;;1.10;;
64313;SDS011;50650;48.180;11.524;2022-07-01T13:37:39;1.40;;;1.10;;
64313;SDS011;50650;48.180;11.524;2022-07-01T13:40:07;1.40;;;1.10;;
64313;SDS011;50650;48.180;11.524;2022-07-01T13:42:34;1.30;;;1.00;;
64313;SDS011;50650;48.180;11.524;2022-07-01T13:45:01;1.45;;;1.10;;
64313;SDS011;50650;48.180;11.524;2022-07-01T13:47:28;1.85;;;1.15;;
64313;SDS011;50650;48.180;11.524;2022-07-01T13:49:55;1.58;;;1.10;;
64313;SDS011;50650;48.180;11.524;2022-07-01T13:52:23;2.05;;;1.10;;
64313;SDS011;50650;48.180;11.524;2022-07-01T13:54:49;1.20;;;1.10;;
64313;SDS011;50650;48.180;11.524;2022-07-01T13:57:16;1.33;;;1.00;;
64313;SDS011;50650;48.180;11.524;2022-07-01T13:59:43;2.15;;;1.02;;
64313;SDS011;50650;48.180;11.524;2022-07-01T14:02:09;2.30;;;1.60;;
64313;SDS011;50650;48.180;11.524;2022-07-01T14:04:36;1.35;;;1.20;;
64313;SDS011;50650;48.180;11.524;2022-07-01T14:07:03;1.33;;;1.10;;
64313;SDS011;50650;48.180;11.524;2022-07-01T14:09:31;1.75;;;1.30;;
64313;SDS011;50650;48.180;11.524;2022-07-01T14:11:58;3.65;;;1.13;;
64313;SDS011;50650;48.180;11.524;2022-07-01T14:14:25;4.30;;;1.25;;
64313;SDS011;50650;48.180;11.524;2022-07-01T14:16:52;1.67;;;1.15;;
64313;SDS011;50650;48.180;11.524;2022-07-01T14:19:18;1.85;;;1.20;;
64313;SDS011;50650;48.180;11.524;2022-07-01T14:21:48;1.63;;;1.17;;
64313;SDS011;50650;48.180;11.524;2022-07-01T14:24:15;1.92;;;1.10;;
64313;SDS011;50650;48.180;11.524;2022-07-01T14:26:43;1.42;;;0.77;;
64313;SDS011;50650;48.180;11.524;2022-07-01T14:29:10;2.40;;;0.98;;
64313;SDS011;50650;48.180;11.524;2022-07-01T14:31:37;5.57;;;1.40;;
64313;SDS011;50650;48.180;11.524;2022-07-01T14:34:03;1.65;;;1.27;;
64313;SDS011;50650;48.180;11.524;2022-07-01T14:36:30;1.38;;;1.25;;
64313;SDS011;50650;48.180;11.524;2022-07-01T14:38:56;2.28;;;1.10;;
64313;SDS011;50650;48.180;11.524;2022-07-01T14:41:23;1.50;;;1.23;;
64313;SDS011;50650;48.180;11.524;2022-07-01T14:43:51;1.40;;;0.93;;
64313;SDS011;50650;48.180;11.524;2022-07-01T14:46:17;1.52;;;0.95;;
64313;SDS011;50650;48.180;11.524;2022-07-01T14:48:44;2.08;;;1.08;;
64313;SDS011;50650;48.180;11.524;2022-07-01T14:51:11;1.67;;;1.40;;
64313;SDS011;50650;48.180;11.524;2022-07-01T14:53:38;2.08;;;1.35;;